createdAt,value
2019-01-11T00:01:46.097Z,43.40
2019-01-11T00:04:14.899Z,42.57
2019-01-11T00:06:43.682Z,47.93
2019-01-11T00:09:12.519Z,49.43
2019-01-11T00:11:41.331Z,41.57
2019-01-11T00:14:10.129Z,45.83
2019-01-11T00:16:39.086Z,44.17
2019-01-11T00:19:07.902Z,45.30
2019-01-11T00:21:36.789Z,47.83
2019-01-11T00:24:06.220Z,50.30
2019-01-11T00:26:35.795Z,45.90
2019-01-11T00:29:04.659Z,52.40
2019-01-11T00:31:33.455Z,60.43
2019-01-11T00:34:02.292Z,57.67
2019-01-11T00:36:31.252Z,52.57
2019-01-11T00:39:00.484Z,47.20
2019-01-11T00:41:29.337Z,52.87
2019-01-11T00:43:58.187Z,56.60
2019-01-11T00:46:26.970Z,49.97
2019-01-11T00:48:55.777Z,52.33
2019-01-11T00:51:24.607Z,54.40
2019-01-11T00:53:53.391Z,54.47
2019-01-11T00:56:22.272Z,59.17
2019-01-11T00:58:51.175Z,52.10
2019-01-11T01:01:19.994Z,54.33
2019-01-11T01:03:49.663Z,60.77
2019-01-11T01:06:18.508Z,63.80
2019-01-11T01:08:47.376Z,61.60
2019-01-11T01:11:16.188Z,66.20
2019-01-11T01:13:44.970Z,59.63
2019-01-11T01:16:13.763Z,78.53
2019-01-11T01:18:43.409Z,61.37
2019-01-11T01:21:12.198Z,67.60
2019-01-11T01:23:41.002Z,67.93
2019-01-11T01:26:09.790Z,59.20
2019-01-11T01:28:38.607Z,66.73
2019-01-11T01:31:07.427Z,59.10
2019-01-11T01:33:36.247Z,64.97
2019-01-11T01:36:05.043Z,63.70
2019-01-11T01:38:33.830Z,65.57
2019-01-11T01:41:02.620Z,66.80
2019-01-11T01:43:32.075Z,64.83
2019-01-11T01:46:00.872Z,72.97
2019-01-11T01:48:29.659Z,62.57
2019-01-11T01:50:58.439Z,55.13
2019-01-11T01:53:27.943Z,62.30
2019-01-11T01:55:57.544Z,65.17
2019-01-11T01:58:26.989Z,67.83
2019-01-11T02:00:55.762Z,63.60
2019-01-11T02:03:24.551Z,63.47
2019-01-11T02:05:54.843Z,54.47
2019-01-11T02:08:23.635Z,57.20
2019-01-11T02:10:52.453Z,50.00
2019-01-11T02:13:21.275Z,57.03
2019-01-11T02:15:50.066Z,55.73
2019-01-11T02:18:19.480Z,52.37
2019-01-11T02:20:48.280Z,58.43
2019-01-11T02:23:17.128Z,52.40
2019-01-11T02:25:46.245Z,51.40
2019-01-11T02:28:14.710Z,54.50
2019-01-11T02:30:43.578Z,56.30
2019-01-11T02:33:12.374Z,51.63
2019-01-11T02:35:42.056Z,54.23
2019-01-11T02:38:10.843Z,57.33
2019-01-11T02:40:39.618Z,54.57
2019-01-11T02:43:08.486Z,58.17
2019-01-11T02:45:37.276Z,57.87
2019-01-11T02:48:06.091Z,55.43
2019-01-11T02:50:34.921Z,58.90
2019-01-11T02:53:03.715Z,54.40
2019-01-11T02:55:32.672Z,54.80
2019-01-11T02:58:01.450Z,58.67
2019-01-11T03:00:30.255Z,56.27
2019-01-11T03:02:59.103Z,63.00
2019-01-11T03:05:27.900Z,54.10
2019-01-11T03:07:58.070Z,49.73
2019-01-11T03:10:26.852Z,56.17
2019-01-11T03:12:55.719Z,56.33
2019-01-11T03:15:24.694Z,53.77
2019-01-11T03:17:53.499Z,56.13
2019-01-11T03:20:22.430Z,55.93
2019-01-11T03:22:51.225Z,59.10
2019-01-11T03:25:20.003Z,52.40
2019-01-11T03:27:48.882Z,54.83
2019-01-11T03:30:19.536Z,55.57
2019-01-11T03:32:48.364Z,57.77
2019-01-11T03:35:21.173Z,57.83
2019-01-11T03:37:50.937Z,58.07
2019-01-11T03:40:23.078Z,60.30
2019-01-11T03:42:51.884Z,58.10
2019-01-11T03:45:22.042Z,63.17
2019-01-11T03:47:51.386Z,59.87
2019-01-11T03:50:20.258Z,60.80
2019-01-11T03:52:49.029Z,60.43
2019-01-11T03:55:18.063Z,68.50
2019-01-11T03:57:48.631Z,73.07
2019-01-11T04:00:21.842Z,58.83
2019-01-11T04:02:50.651Z,63.70
2019-01-11T04:05:19.463Z,68.53
2019-01-11T04:07:48.357Z,55.77
2019-01-11T04:10:19.081Z,68.33
2019-01-11T04:12:47.863Z,57.67
2019-01-11T04:15:17.177Z,61.07
2019-01-11T04:17:46.591Z,74.03
2019-01-11T04:20:17.217Z,64.77
2019-01-11T04:22:50.196Z,61.07
2019-01-11T04:25:24.674Z,81.10
2019-01-11T04:27:53.521Z,65.60
2019-01-11T04:30:22.626Z,74.13
2019-01-11T04:32:52.372Z,78.37
2019-01-11T04:35:21.176Z,67.83
2019-01-11T04:37:49.988Z,69.87
2019-01-11T04:40:19.058Z,79.87
2019-01-11T04:42:47.843Z,63.97
2019-01-11T04:45:16.658Z,76.87
2019-01-11T04:47:45.502Z,52.80
2019-01-11T04:50:17.311Z,57.13
2019-01-11T04:52:46.330Z,55.53
2019-01-11T04:55:15.058Z,58.00
2019-01-11T04:57:43.931Z,65.87
2019-01-11T05:00:15.859Z,59.57
2019-01-11T05:02:44.714Z,58.10
2019-01-11T05:05:13.531Z,54.07
2019-01-11T05:07:42.322Z,58.97
2019-01-11T05:10:12.023Z,56.50
2019-01-11T05:12:40.973Z,60.07
2019-01-11T05:15:09.771Z,58.23
2019-01-11T05:17:38.621Z,58.93
2019-01-11T05:20:16.418Z,62.27
2019-01-11T05:22:39.219Z,76.07
2019-01-11T05:25:08.333Z,64.90
2019-01-11T05:27:37.190Z,66.87
2019-01-11T05:30:09.217Z,62.30
2019-01-11T05:32:38.032Z,77.90
2019-01-11T05:35:07.143Z,64.87
2019-01-11T05:37:35.935Z,61.67
2019-01-11T05:40:06.911Z,55.13
2019-01-11T05:42:35.999Z,63.20
2019-01-11T05:45:04.972Z,64.67
2019-01-11T05:47:33.753Z,69.93
2019-01-11T05:50:02.587Z,61.43
2019-01-11T05:52:31.376Z,54.60
2019-01-11T05:55:00.271Z,56.87
2019-01-11T05:57:29.133Z,60.37
2019-01-11T05:59:57.934Z,51.73
2019-01-11T06:02:26.746Z,57.90
2019-01-11T06:04:59.797Z,57.00
2019-01-11T06:07:49.730Z,53.63
2019-01-11T06:10:18.546Z,52.23
2019-01-11T06:12:47.348Z,51.10
2019-01-11T06:15:16.186Z,58.30
2019-01-11T06:17:46.034Z,53.60
2019-01-11T06:20:15.959Z,52.17
2019-01-11T06:22:44.860Z,45.73
2019-01-11T06:25:13.697Z,57.73
2019-01-11T06:27:42.470Z,52.37
2019-01-11T06:30:12.771Z,46.07
2019-01-11T06:32:42.219Z,53.27
2019-01-11T06:35:11.002Z,53.30
2019-01-11T06:37:39.830Z,49.17
2019-01-11T06:40:08.903Z,50.50
2019-01-11T06:42:37.836Z,45.63
2019-01-11T06:45:08.048Z,43.17
2019-01-11T06:47:36.921Z,40.47
2019-01-11T06:50:08.827Z,38.43
2019-01-11T06:52:38.091Z,49.80
2019-01-11T06:55:06.919Z,44.87
2019-01-11T06:57:35.715Z,44.10
2019-01-11T07:00:07.942Z,48.17
2019-01-11T07:02:37.655Z,50.00
2019-01-11T07:05:07.675Z,52.20
2019-01-11T07:07:36.994Z,44.00
2019-01-11T07:10:09.155Z,49.20
2019-01-11T07:12:37.973Z,42.43
2019-01-11T07:15:07.515Z,50.57
2019-01-11T07:17:36.335Z,40.50
2019-01-11T07:20:05.982Z,41.07
2019-01-11T07:22:34.699Z,41.13
2019-01-11T07:25:03.586Z,44.20
2019-01-11T07:27:36.305Z,62.80
2019-01-11T07:30:05.587Z,51.13
2019-01-11T07:32:34.393Z,58.87
2019-01-11T07:35:03.250Z,46.87
2019-01-11T07:37:32.194Z,53.97
2019-01-11T07:40:01.071Z,41.63
2019-01-11T07:42:29.872Z,45.43
2019-01-11T07:44:58.676Z,48.90
2019-01-11T07:47:27.502Z,53.40
2019-01-11T07:49:56.440Z,58.40
2019-01-11T07:52:25.229Z,56.33
2019-01-11T07:54:53.979Z,58.87
2019-01-11T07:57:22.778Z,61.93
2019-01-11T07:59:51.679Z,58.90
2019-01-11T08:02:20.480Z,58.33
2019-01-11T08:04:49.349Z,71.20
2019-01-11T08:07:18.288Z,59.43
2019-01-11T08:09:47.119Z,62.23
2019-01-11T08:12:16.064Z,63.37
2019-01-11T08:14:44.839Z,63.53
2019-01-11T08:17:13.722Z,70.13
2019-01-11T08:19:42.512Z,72.67
2019-01-11T08:22:15.617Z,60.60
2019-01-11T08:24:48.275Z,55.40
2019-01-11T08:27:17.124Z,58.87
2019-01-11T08:29:45.950Z,52.40
2019-01-11T08:32:14.797Z,42.23
2019-01-11T08:34:43.643Z,50.20
2019-01-11T08:37:12.511Z,55.27
2019-01-11T08:39:41.406Z,42.83
2019-01-11T08:42:10.207Z,40.50
2019-01-11T08:44:39.068Z,48.17
2019-01-11T08:47:07.912Z,49.43
2019-01-11T08:49:36.761Z,48.43
2019-01-11T08:52:05.565Z,52.73
2019-01-11T08:54:34.367Z,63.43
2019-01-11T08:57:03.235Z,54.10
2019-01-11T08:59:32.169Z,48.57
2019-01-11T09:02:00.964Z,47.47
2019-01-11T09:04:29.756Z,61.00
2019-01-11T09:06:58.649Z,82.10
2019-01-11T09:09:27.501Z,50.87
2019-01-11T09:11:56.407Z,51.03
2019-01-11T09:14:33.339Z,51.30
2019-01-11T09:17:02.157Z,50.03
2019-01-11T09:19:31.018Z,58.43
2019-01-11T09:21:59.807Z,44.37
2019-01-11T09:24:28.619Z,56.80
2019-01-11T09:26:57.383Z,41.20
2019-01-11T09:29:26.212Z,49.63
2019-01-11T09:31:55.067Z,46.10
2019-01-11T09:34:23.874Z,52.37
2019-01-11T09:36:52.661Z,74.20
2019-01-11T09:39:21.455Z,52.17
2019-01-11T09:41:50.240Z,54.30
2019-01-11T09:44:19.112Z,62.90
2019-01-11T09:46:47.919Z,49.67
2019-01-11T09:49:16.781Z,41.67
2019-01-11T09:51:45.663Z,47.33
2019-01-11T09:54:14.629Z,65.30
2019-01-11T09:56:43.643Z,43.27
2019-01-11T09:59:12.563Z,49.83
2019-01-11T10:01:41.352Z,35.17
2019-01-11T10:04:12.158Z,43.23
2019-01-11T10:06:45.191Z,42.30
2019-01-11T10:09:13.982Z,40.13
2019-01-11T10:11:42.864Z,33.20
2019-01-11T10:14:11.750Z,34.67
2019-01-11T10:16:40.559Z,35.27
2019-01-11T10:19:09.407Z,37.70
2019-01-11T10:21:38.235Z,31.97
2019-01-11T10:24:07.017Z,29.17
2019-01-11T10:26:35.875Z,24.90
2019-01-11T10:29:04.704Z,30.00
2019-01-11T10:31:33.483Z,17.70
2019-01-11T10:34:02.338Z,14.77
2019-01-11T10:36:31.734Z,19.50
2019-01-11T10:39:00.515Z,19.97
2019-01-11T10:41:29.305Z,19.90
2019-01-11T10:43:58.130Z,21.27
2019-01-11T10:46:32.433Z,22.87
2019-01-11T10:49:01.199Z,24.43
2019-01-11T10:51:30.087Z,27.87
2019-01-11T10:53:58.835Z,21.00
2019-01-11T10:56:27.658Z,22.53
2019-01-11T10:58:56.512Z,15.40
2019-01-11T11:01:25.408Z,18.47
2019-01-11T11:03:54.280Z,15.30
2019-01-11T11:06:23.166Z,12.13
2019-01-11T11:08:51.958Z,10.97
2019-01-11T11:11:20.755Z,18.83
2019-01-11T11:13:50.344Z,13.27
2019-01-11T11:16:19.145Z,13.53
2019-01-11T11:18:47.940Z,11.67
2019-01-11T11:21:16.791Z,9.90
2019-01-11T11:23:45.654Z,14.30
2019-01-11T11:26:14.467Z,13.47
2019-01-11T11:28:43.353Z,18.57
2019-01-11T11:31:12.151Z,14.30
2019-01-11T11:33:43.991Z,14.20
2019-01-11T11:36:12.925Z,16.50
2019-01-11T11:38:41.711Z,18.83
2019-01-11T11:41:10.508Z,24.03
2019-01-11T11:43:39.384Z,11.30
2019-01-11T11:46:08.206Z,19.13
2019-01-11T11:48:36.988Z,18.40
2019-01-11T11:51:05.853Z,20.20
2019-01-11T11:53:34.690Z,14.43
2019-01-11T11:56:03.508Z,12.13
2019-01-11T11:58:39.970Z,20.30
2019-01-11T12:01:08.791Z,16.77
2019-01-11T12:03:37.670Z,15.43
2019-01-11T12:06:06.475Z,26.67
2019-01-11T12:08:35.328Z,16.30
2019-01-11T12:11:04.128Z,13.40
2019-01-11T12:13:34.602Z,20.97
2019-01-11T12:16:01.777Z,16.03
2019-01-11T12:18:30.688Z,13.80
2019-01-11T12:20:59.474Z,13.90
2019-01-11T12:23:28.312Z,15.80
2019-01-11T12:25:57.170Z,22.10
2019-01-11T12:28:25.987Z,21.00
2019-01-11T12:30:54.767Z,26.87
2019-01-11T12:33:23.626Z,18.73
2019-01-11T12:35:52.476Z,21.43
2019-01-11T12:38:21.297Z,17.37
2019-01-11T12:40:50.128Z,25.87
2019-01-11T12:43:18.992Z,18.90
2019-01-11T12:45:47.922Z,16.23
2019-01-11T12:48:16.703Z,11.57
2019-01-11T12:50:45.564Z,8.53
2019-01-11T12:53:27.967Z,14.40
2019-01-11T12:55:56.743Z,10.40
2019-01-11T12:58:25.591Z,9.03
2019-01-11T13:00:54.395Z,9.23
2019-01-11T13:03:23.244Z,10.33
2019-01-11T13:05:52.038Z,9.30
2019-01-11T13:08:20.904Z,7.33
2019-01-11T13:10:50.434Z,9.10
2019-01-11T13:13:19.233Z,7.77
2019-01-11T13:15:48.059Z,8.57
2019-01-11T13:18:16.827Z,13.00
2019-01-11T13:20:45.629Z,7.30
2019-01-11T13:23:14.455Z,10.17
2019-01-11T13:25:43.239Z,8.20
2019-01-11T13:28:12.082Z,9.23
2019-01-11T13:30:40.867Z,7.63
2019-01-11T13:33:09.639Z,4.67
2019-01-11T13:35:38.496Z,5.53
2019-01-11T13:38:07.311Z,14.67
2019-01-11T13:40:36.698Z,5.83
2019-01-11T13:43:05.487Z,8.00
2019-01-11T13:45:34.327Z,7.57
2019-01-11T13:48:03.641Z,6.73
2019-01-11T13:50:36.372Z,5.10
2019-01-11T13:53:06.503Z,6.40
2019-01-11T13:55:35.284Z,7.17
2019-01-11T13:58:04.103Z,7.20
2019-01-11T14:00:32.935Z,5.70
2019-01-11T14:03:01.786Z,5.27
2019-01-11T14:05:30.667Z,8.93
2019-01-11T14:07:59.609Z,8.23
2019-01-11T14:10:28.962Z,3.93
2019-01-11T14:12:57.943Z,5.03
2019-01-11T14:15:26.984Z,7.80
2019-01-11T14:17:55.730Z,8.73
2019-01-11T14:20:24.616Z,14.33
2019-01-11T14:22:53.395Z,14.23
2019-01-11T14:25:22.234Z,15.27
2019-01-11T14:27:51.126Z,13.50
2019-01-11T14:30:19.938Z,23.00
2019-01-11T14:32:48.944Z,15.20
2019-01-11T14:35:18.307Z,15.67
2019-01-11T14:37:47.184Z,20.83
2019-01-11T14:40:16.083Z,9.57
2019-01-11T14:42:44.887Z,21.77
2019-01-11T14:45:14.923Z,16.10
2019-01-11T14:47:43.739Z,18.00
2019-01-11T14:50:14.758Z,15.27
2019-01-11T14:52:43.607Z,17.13
2019-01-11T14:55:12.401Z,18.57
2019-01-11T14:57:41.180Z,20.80
2019-01-11T15:00:13.892Z,23.13
2019-01-11T15:02:42.715Z,25.47
2019-01-11T15:05:12.281Z,24.87
2019-01-11T15:07:41.189Z,27.50
2019-01-11T15:10:11.413Z,22.27
2019-01-11T15:12:40.272Z,25.20
2019-01-11T15:15:09.174Z,25.80
2019-01-11T15:17:37.933Z,28.87
2019-01-11T15:20:09.032Z,20.50
2019-01-11T15:22:37.849Z,18.63
2019-01-11T15:25:07.647Z,16.70
2019-01-11T15:27:36.541Z,25.83
2019-01-11T15:30:06.660Z,19.07
2019-01-11T15:32:35.449Z,30.60
2019-01-11T15:35:04.819Z,17.87
2019-01-11T15:37:33.598Z,20.00
2019-01-11T15:40:02.428Z,26.90
2019-01-11T15:42:31.335Z,18.47
2019-01-11T15:45:00.220Z,18.50
2019-01-11T15:47:29.025Z,15.70
2019-01-11T15:49:57.804Z,17.33
2019-01-11T15:52:33.115Z,16.93
2019-01-11T15:54:55.600Z,19.97
2019-01-11T15:57:28.530Z,10.70
2019-01-11T16:00:00.372Z,16.93
2019-01-11T16:02:29.175Z,23.70
2019-01-11T16:05:00.231Z,15.03
2019-01-11T16:07:29.714Z,20.10
2019-01-11T16:10:03.342Z,22.17
2019-01-11T16:12:35.566Z,17.80
2019-01-11T16:17:18.887Z,22.63
2019-01-11T16:19:47.665Z,14.60
2019-01-11T16:22:16.459Z,17.77
2019-01-11T16:24:45.247Z,11.80
2019-01-11T16:27:14.086Z,18.60
2019-01-11T16:29:42.904Z,17.93
2019-01-11T16:32:11.716Z,16.93
2019-01-11T16:34:40.660Z,12.53
2019-01-11T16:37:09.455Z,15.20
2019-01-11T16:39:38.235Z,15.73
2019-01-11T16:42:07.054Z,12.97
2019-01-11T16:44:36.642Z,15.27
2019-01-11T16:47:05.543Z,8.13
2019-01-11T16:49:34.318Z,13.07
2019-01-11T16:52:03.110Z,12.80
2019-01-11T16:54:31.966Z,13.03
2019-01-11T16:59:34.375Z,14.73
2019-01-11T17:02:03.159Z,10.60
2019-01-11T17:04:31.940Z,17.20
2019-01-11T17:07:00.743Z,9.73
2019-01-11T17:09:29.528Z,11.30
2019-01-11T17:11:58.317Z,14.80
2019-01-11T17:14:27.118Z,13.73
2019-01-11T17:16:55.971Z,13.40
2019-01-11T17:19:24.787Z,20.87
2019-01-11T17:21:53.618Z,16.17
2019-01-11T17:24:22.483Z,17.93
2019-01-11T17:26:51.255Z,17.53
2019-01-11T17:29:20.165Z,22.10
2019-01-11T17:31:48.960Z,23.27
2019-01-11T17:34:17.755Z,21.13
2019-01-11T17:36:46.556Z,15.33
2019-01-11T17:39:15.338Z,12.83
2019-01-11T17:41:44.129Z,18.83
2019-01-11T17:44:12.998Z,14.00
2019-01-11T17:46:41.761Z,16.03
2019-01-11T17:49:10.572Z,16.63
2019-01-11T17:51:39.399Z,18.07
2019-01-11T17:54:08.183Z,14.20
2019-01-11T17:56:36.976Z,16.30
2019-01-11T17:59:05.761Z,21.83
2019-01-11T18:01:34.636Z,23.37
2019-01-11T18:04:04.143Z,14.70
2019-01-11T18:06:32.946Z,17.77
2019-01-11T18:09:01.807Z,28.63
2019-01-11T18:11:30.643Z,19.13
2019-01-11T18:13:59.530Z,17.60
2019-01-11T18:16:28.368Z,20.30
2019-01-11T18:18:57.145Z,23.80
2019-01-11T18:21:25.927Z,18.97
2019-01-11T18:23:54.762Z,20.87
2019-01-11T18:26:23.870Z,23.03
2019-01-11T18:28:52.667Z,23.30
2019-01-11T18:31:21.543Z,18.60
2019-01-11T18:33:50.643Z,13.10
2019-01-11T18:36:19.475Z,16.23
2019-01-11T18:38:48.324Z,14.53
2019-01-11T18:41:17.159Z,14.10
2019-01-11T18:43:46.266Z,12.33
2019-01-11T18:46:15.095Z,18.67
2019-01-11T18:48:43.997Z,18.60
2019-01-11T18:51:12.775Z,16.47
2019-01-11T18:53:41.721Z,22.87
2019-01-11T18:56:10.607Z,14.87
2019-01-11T18:58:39.446Z,8.93
2019-01-11T19:01:08.227Z,13.27
2019-01-11T19:03:37.065Z,12.93
2019-01-11T19:06:05.831Z,12.97
2019-01-11T19:08:34.686Z,11.87
2019-01-11T19:11:03.492Z,9.73
2019-01-11T19:13:32.250Z,10.23
2019-01-11T19:16:01.104Z,11.00
2019-01-11T19:18:29.953Z,9.93
2019-01-11T19:20:59.311Z,14.43
2019-01-11T19:23:28.118Z,10.33
2019-01-11T19:25:56.900Z,12.30
2019-01-11T19:28:25.776Z,17.47
2019-01-11T19:30:54.589Z,14.07
2019-01-11T19:33:23.487Z,8.10
2019-01-11T19:35:52.425Z,14.67
2019-01-11T19:38:22.355Z,12.80
2019-01-11T19:40:50.591Z,14.17
2019-01-11T19:43:19.441Z,23.07
2019-01-11T19:45:48.346Z,16.53
2019-01-11T19:48:17.236Z,16.97
2019-01-11T19:50:46.853Z,21.30
2019-01-11T19:53:15.803Z,22.07
2019-01-11T19:55:44.719Z,19.13
2019-01-11T19:58:13.542Z,14.13
2019-01-11T20:00:42.382Z,13.37
2019-01-11T20:03:11.147Z,15.47
2019-01-11T20:05:39.969Z,24.30
2019-01-11T20:08:09.670Z,19.27
2019-01-11T20:10:37.752Z,15.43
2019-01-11T20:13:06.545Z,20.83
2019-01-11T20:15:35.407Z,24.77
2019-01-11T20:18:04.353Z,22.37
2019-01-11T20:20:33.160Z,17.40
2019-01-11T20:23:02.800Z,14.33
2019-01-11T20:25:30.946Z,24.03
2019-01-11T20:27:59.792Z,16.23
2019-01-11T20:30:28.792Z,16.97
2019-01-11T20:32:57.664Z,26.03
2019-01-11T20:35:26.452Z,16.93
2019-01-11T20:37:55.278Z,18.63
2019-01-11T20:40:24.120Z,14.57
2019-01-11T20:42:53.002Z,10.70
2019-01-11T20:45:21.911Z,18.37
2019-01-11T20:47:50.704Z,17.93
2019-01-11T20:50:22.511Z,24.90
2019-01-11T20:52:51.329Z,20.83
2019-01-11T20:55:20.111Z,11.73
2019-01-11T20:57:48.944Z,17.17
2019-01-11T21:00:21.526Z,18.60
2019-01-11T21:02:50.382Z,17.33
2019-01-11T21:05:19.157Z,15.63
2019-01-11T21:07:48.028Z,17.77
2019-01-11T21:10:16.832Z,18.57
2019-01-11T21:12:45.683Z,25.47
2019-01-11T21:15:14.874Z,17.97
2019-01-11T21:17:43.687Z,26.53
2019-01-11T21:20:13.875Z,22.70
2019-01-11T21:22:42.757Z,20.10
2019-01-11T21:25:12.377Z,15.17
2019-01-11T21:27:41.181Z,17.27
2019-01-11T21:30:14.880Z,24.20
2019-01-11T21:32:43.661Z,19.20
2019-01-11T21:35:12.472Z,16.30
2019-01-11T21:37:41.230Z,17.00
2019-01-11T21:40:11.906Z,15.33
2019-01-11T21:42:40.723Z,18.23
2019-01-11T21:45:09.616Z,13.47
2019-01-11T21:47:38.359Z,28.73
2019-01-11T21:50:10.804Z,22.70
2019-01-11T21:52:39.581Z,18.43
2019-01-11T21:55:10.124Z,13.23
2019-01-11T21:57:38.978Z,12.93
2019-01-11T22:00:12.233Z,18.57
2019-01-11T22:02:41.065Z,16.23
2019-01-11T22:05:09.959Z,15.30
2019-01-11T22:07:38.745Z,21.03
2019-01-11T22:10:09.400Z,21.80
2019-01-11T22:12:38.187Z,12.27
2019-01-11T22:15:08.132Z,20.87
2019-01-11T22:17:36.908Z,13.07
2019-01-11T22:20:07.932Z,13.63
2019-01-11T22:22:36.754Z,18.20
2019-01-11T22:25:06.428Z,22.23
2019-01-11T22:27:35.216Z,27.03
2019-01-11T22:30:05.221Z,29.27
2019-01-11T22:32:34.003Z,22.63
2019-01-11T22:35:02.804Z,18.33
2019-01-11T22:37:31.647Z,13.77
2019-01-11T22:40:00.572Z,12.67
2019-01-11T22:42:29.248Z,22.87
2019-01-11T22:44:58.035Z,25.07
2019-01-11T22:47:26.899Z,27.20
2019-01-11T22:49:55.756Z,14.30
2019-01-11T22:52:24.705Z,19.57
2019-01-11T22:54:53.507Z,19.97
2019-01-11T22:57:22.340Z,12.70
2019-01-11T22:59:51.212Z,17.43
2019-01-11T23:02:33.291Z,15.87
2019-01-11T23:05:02.163Z,13.53
2019-01-11T23:07:40.484Z,17.13
2019-01-11T23:12:28.654Z,14.57
2019-01-11T23:14:57.478Z,12.40
2019-01-11T23:17:58.995Z,20.03
2019-01-11T23:20:27.814Z,12.73
2019-01-11T23:22:56.756Z,17.20
2019-01-11T23:25:25.523Z,12.13
2019-01-11T23:27:54.454Z,10.30
2019-01-11T23:30:23.306Z,10.63
2019-01-11T23:32:52.119Z,9.47
2019-01-11T23:35:20.942Z,9.93
2019-01-11T23:37:49.710Z,14.40
2019-01-11T23:40:18.588Z,11.03
2019-01-11T23:42:47.412Z,13.37
2019-01-11T23:45:16.254Z,13.03
2019-01-11T23:47:45.138Z,10.10
2019-01-11T23:50:16.115Z,9.90
2019-01-11T23:52:44.931Z,12.67
2019-01-11T23:55:13.745Z,8.93
2019-01-11T23:57:42.523Z,14.93
